createdAt,value
2023-02-11T00:01:36.606Z,80.47
2023-02-11T00:04:06.511Z,80.75
2023-02-11T00:06:35.919Z,80.68
2023-02-11T00:09:05.420Z,80.57
2023-02-11T00:11:33.892Z,80.68
2023-02-11T00:14:07.930Z,81.01
2023-02-11T00:16:36.187Z,80.77
2023-02-11T00:19:06.348Z,81.13
2023-02-11T00:21:34.688Z,80.56
2023-02-11T00:24:02.813Z,80.46
2023-02-11T00:26:35.365Z,80.28
2023-02-11T00:29:05.135Z,80.32
2023-02-11T00:31:34.203Z,80.03
2023-02-11T00:34:02.730Z,80.04
2023-02-11T00:36:31.343Z,79.97
2023-02-11T00:39:00.268Z,80.05
2023-02-11T00:41:29.658Z,79.90
2023-02-11T00:44:02.522Z,79.64
2023-02-11T00:46:30.586Z,79.60
2023-02-11T00:48:58.783Z,79.36
2023-02-11T00:51:28.637Z,79.28
2023-02-11T00:53:57.499Z,79.25
2023-02-11T00:56:25.954Z,79.00
2023-02-11T00:58:54.282Z,78.69
2023-02-11T01:01:22.412Z,79.01
2023-02-11T01:03:50.598Z,78.74
2023-02-11T01:06:18.976Z,78.79
2023-02-11T01:08:47.007Z,78.69
2023-02-11T01:11:19.333Z,78.87
2023-02-11T01:13:48.856Z,78.76
2023-02-11T01:16:19.185Z,78.83
2023-02-11T01:18:47.576Z,78.56
2023-02-11T01:21:19.468Z,78.46
2023-02-11T01:23:47.812Z,78.67
2023-02-11T01:26:16.466Z,78.56
2023-02-11T01:28:44.612Z,78.42
2023-02-11T01:31:12.794Z,78.63
2023-02-11T01:33:40.988Z,78.45
2023-02-11T01:36:11.628Z,78.37
2023-02-11T01:38:40.889Z,78.35
2023-02-11T01:41:12.626Z,78.24
2023-02-11T01:43:49.100Z,78.26
2023-02-11T01:46:36.308Z,78.25
2023-02-11T01:49:12.673Z,78.55
2023-02-11T01:51:55.036Z,78.64
2023-02-11T01:54:46.708Z,78.45
2023-02-11T01:57:27.695Z,78.41
2023-02-11T02:00:03.317Z,78.22
2023-02-11T02:02:49.081Z,77.88
2023-02-11T02:05:42.844Z,78.00
2023-02-11T02:08:57.069Z,77.77
2023-02-11T02:11:26.444Z,77.54
2023-02-11T02:13:54.486Z,77.74
2023-02-11T02:16:29.230Z,77.95
2023-02-11T02:20:03.023Z,77.65
2023-02-11T02:23:08.398Z,77.62
2023-02-11T02:25:59.417Z,77.61
2023-02-11T02:29:22.556Z,77.35
2023-02-11T02:32:31.088Z,77.50
2023-02-11T02:35:16.897Z,77.63
2023-02-11T02:38:03.759Z,77.34
2023-02-11T02:40:40.048Z,77.57
2023-02-11T02:43:10.662Z,77.37
2023-02-11T02:45:38.643Z,77.50
2023-02-11T02:48:07.035Z,77.41
2023-02-11T02:50:37.273Z,77.38
2023-02-11T02:53:32.466Z,77.16
2023-02-11T02:56:25.915Z,76.97
2023-02-11T02:59:13.036Z,77.26
2023-02-11T03:02:04.269Z,77.34
2023-02-11T03:04:47.568Z,77.24
2023-02-11T03:08:10.135Z,77.03
2023-02-11T03:10:50.020Z,76.92
2023-02-11T03:13:22.832Z,76.61
2023-02-11T03:15:53.877Z,76.68
2023-02-11T03:18:26.466Z,76.72
2023-02-11T03:20:57.824Z,76.81
2023-02-11T03:23:47.886Z,76.59
2023-02-11T03:26:30.255Z,76.67
2023-02-11T03:29:39.530Z,76.53
2023-02-11T03:32:16.656Z,76.33
2023-02-11T03:35:07.470Z,76.72
2023-02-11T03:37:43.708Z,76.79
2023-02-11T03:40:17.281Z,76.72
2023-02-11T03:42:59.549Z,76.19
2023-02-11T03:45:28.529Z,76.21
2023-02-11T03:48:14.672Z,75.97
2023-02-11T03:50:45.544Z,76.18
2023-02-11T03:53:15.085Z,76.22
2023-02-11T03:55:45.523Z,76.43
2023-02-11T03:58:13.592Z,76.45
2023-02-11T04:00:43.731Z,76.04
2023-02-11T04:03:12.985Z,76.31
2023-02-11T04:05:41.267Z,76.39
2023-02-11T04:08:09.476Z,76.51
2023-02-11T04:10:37.394Z,76.31
2023-02-11T04:13:05.313Z,76.55
2023-02-11T04:15:33.355Z,76.82
2023-02-11T04:18:03.296Z,76.81
2023-02-11T04:20:31.262Z,77.33
2023-02-11T04:22:59.349Z,77.36
2023-02-11T04:25:27.481Z,77.35
2023-02-11T04:27:55.434Z,77.87
2023-02-11T04:30:23.504Z,77.78
2023-02-11T04:32:51.480Z,77.76
2023-02-11T04:35:19.987Z,78.09
2023-02-11T04:37:47.953Z,77.92
2023-02-11T04:40:16.168Z,77.97
2023-02-11T04:42:44.125Z,78.32
2023-02-11T04:45:12.133Z,78.95
2023-02-11T04:47:40.447Z,78.69
2023-02-11T04:50:08.869Z,79.00
2023-02-11T04:52:36.856Z,79.00
2023-02-11T04:55:05.417Z,79.18
2023-02-11T04:57:33.427Z,79.58
2023-02-11T05:00:01.457Z,79.49
2023-02-11T05:02:29.494Z,79.31
2023-02-11T05:04:57.572Z,79.54
2023-02-11T05:07:25.573Z,79.97
2023-02-11T05:09:53.515Z,80.32
2023-02-11T05:12:21.876Z,80.70
2023-02-11T05:14:49.858Z,80.56
2023-02-11T05:17:18.576Z,80.66
2023-02-11T05:19:46.539Z,80.63
2023-02-11T05:22:14.572Z,81.02
2023-02-11T05:24:42.600Z,80.91
2023-02-11T05:27:10.699Z,81.51
2023-02-11T05:29:38.851Z,81.22
2023-02-11T05:32:08.885Z,81.26
2023-02-11T05:34:36.876Z,81.10
2023-02-11T05:37:05.127Z,81.31
2023-02-11T05:39:33.407Z,81.12
2023-02-11T05:42:01.347Z,81.28
2023-02-11T05:44:29.310Z,81.18
2023-02-11T05:46:57.243Z,81.32
2023-02-11T05:49:25.293Z,81.20
2023-02-11T05:51:53.321Z,81.06
2023-02-11T05:54:21.332Z,81.08
2023-02-11T05:56:49.293Z,80.96
2023-02-11T05:59:17.292Z,81.43
2023-02-11T06:01:45.238Z,81.55
2023-02-11T06:04:13.211Z,81.43
2023-02-11T06:06:41.209Z,81.53
2023-02-11T06:09:11.276Z,81.82
2023-02-11T06:11:39.281Z,81.52
2023-02-11T06:14:09.697Z,81.90
2023-02-11T06:16:38.018Z,81.92
2023-02-11T06:19:07.294Z,82.09
2023-02-11T06:21:43.499Z,82.26
2023-02-11T06:24:13.394Z,82.54
2023-02-11T06:26:43.976Z,82.96
2023-02-11T06:29:15.405Z,83.02
2023-02-11T06:31:46.097Z,83.25
2023-02-11T06:34:14.291Z,83.20
2023-02-11T06:36:43.926Z,83.95
2023-02-11T06:39:14.378Z,84.43
2023-02-11T06:41:42.335Z,84.32
2023-02-11T06:44:10.268Z,84.75
2023-02-11T06:46:38.356Z,84.87
2023-02-11T06:49:06.411Z,85.08
2023-02-11T06:51:34.346Z,85.23
2023-02-11T06:54:02.395Z,85.56
2023-02-11T06:56:30.367Z,86.00
2023-02-11T06:58:58.420Z,85.42
2023-02-11T07:01:28.232Z,85.41
2023-02-11T07:03:56.429Z,85.77
2023-02-11T07:06:28.070Z,85.26
2023-02-11T07:08:56.611Z,84.74
2023-02-11T07:11:28.603Z,85.37
2023-02-11T07:14:06.023Z,85.57
2023-02-11T07:16:34.586Z,85.99
2023-02-11T07:19:02.774Z,85.50
2023-02-11T07:21:30.924Z,85.57
2023-02-11T07:23:58.957Z,85.33
2023-02-11T07:26:27.063Z,85.12
2023-02-11T07:28:55.488Z,84.61
2023-02-11T07:31:27.657Z,84.95
2023-02-11T07:33:59.833Z,84.79
2023-02-11T07:36:30.168Z,84.53
2023-02-11T07:39:00.170Z,84.04
2023-02-11T07:41:28.403Z,84.19
2023-02-11T07:43:56.604Z,84.33
2023-02-11T07:46:27.905Z,84.32
2023-02-11T07:48:56.424Z,84.85
2023-02-11T07:51:28.653Z,84.46
2023-02-11T07:53:59.089Z,85.01
2023-02-11T07:56:28.985Z,85.09
2023-02-11T07:59:03.446Z,84.41
2023-02-11T08:01:31.876Z,84.46
2023-02-11T08:04:01.747Z,84.51
2023-02-11T08:06:33.814Z,84.86
2023-02-11T08:09:08.793Z,85.40
2023-02-11T08:11:36.958Z,85.44
2023-02-11T08:14:05.143Z,85.34
2023-02-11T08:16:36.954Z,85.97
2023-02-11T08:19:10.489Z,86.04
2023-02-11T08:21:39.810Z,85.93
2023-02-11T08:24:08.639Z,85.36
2023-02-11T08:26:36.612Z,85.64
2023-02-11T08:29:13.003Z,85.35
2023-02-11T08:31:45.134Z,85.30
2023-02-11T08:34:14.965Z,84.95
2023-02-11T08:36:43.721Z,84.78
2023-02-11T08:39:20.640Z,84.68
2023-02-11T08:41:53.291Z,84.53
2023-02-11T08:44:22.722Z,84.83
2023-02-11T08:46:51.700Z,84.65
2023-02-11T08:49:21.113Z,84.54
2023-02-11T08:51:50.500Z,84.85
2023-02-11T08:54:18.590Z,84.86
2023-02-11T08:56:51.133Z,84.55
2023-02-11T08:59:19.367Z,84.54
2023-02-11T09:01:47.933Z,83.94
2023-02-11T09:04:16.088Z,83.99
2023-02-11T09:06:44.286Z,84.18
2023-02-11T09:09:24.519Z,84.11
2023-02-11T09:11:57.201Z,84.45
2023-02-11T09:14:25.337Z,84.35
2023-02-11T09:16:53.786Z,84.78
2023-02-11T09:19:23.108Z,84.75
2023-02-11T09:21:51.143Z,85.59
2023-02-11T09:24:19.379Z,85.89
2023-02-11T09:26:47.520Z,86.28
2023-02-11T09:29:18.856Z,85.40
2023-02-11T09:31:47.119Z,85.47
2023-02-11T09:34:15.954Z,84.84
2023-02-11T09:36:44.115Z,84.44
2023-02-11T09:39:20.419Z,84.11
2023-02-11T09:42:03.767Z,84.16
2023-02-11T09:44:36.129Z,84.03
2023-02-11T09:47:31.648Z,84.12
2023-02-11T09:50:11.289Z,83.68
2023-02-11T09:53:03.566Z,82.81
2023-02-11T09:55:56.933Z,82.77
2023-02-11T09:58:35.930Z,82.79
2023-02-11T10:01:21.794Z,82.79
2023-02-11T10:04:12.121Z,83.91
2023-02-11T10:06:55.012Z,84.27
2023-02-11T10:09:52.889Z,83.34
2023-02-11T10:12:55.739Z,83.87
2023-02-11T10:15:48.608Z,83.25
2023-02-11T10:18:38.690Z,84.15
2023-02-11T10:21:40.602Z,83.96
2023-02-11T10:24:14.188Z,83.50
2023-02-11T10:26:43.836Z,83.96
2023-02-11T10:29:43.217Z,84.10
2023-02-11T10:32:52.462Z,84.71
2023-02-11T10:35:23.719Z,83.94
2023-02-11T10:37:51.701Z,83.85
2023-02-11T10:40:27.269Z,84.78
2023-02-11T10:43:00.569Z,85.16
2023-02-11T10:45:38.420Z,85.27
2023-02-11T10:48:36.152Z,85.33
2023-02-11T10:51:15.638Z,85.34
2023-02-11T10:53:45.089Z,85.63
2023-02-11T10:56:25.468Z,86.36
2023-02-11T10:59:14.602Z,86.29
2023-02-11T11:02:00.573Z,86.67
2023-02-11T11:04:42.973Z,86.73
2023-02-11T11:07:21.585Z,86.26
2023-02-11T11:09:56.679Z,86.22
2023-02-11T11:12:45.649Z,86.41
2023-02-11T11:15:31.018Z,86.85
2023-02-11T11:18:24.609Z,86.42
2023-02-11T11:21:00.652Z,85.96
2023-02-11T11:23:31.108Z,86.67
2023-02-11T11:26:13.667Z,86.53
2023-02-11T11:29:08.962Z,86.45
2023-02-11T11:31:56.899Z,86.30
2023-02-11T11:34:31.684Z,86.95
2023-02-11T11:37:09.643Z,87.29
2023-02-11T11:39:39.630Z,87.50
2023-02-11T11:42:31.464Z,87.90
2023-02-11T11:45:03.808Z,88.06
2023-02-11T11:47:43.296Z,87.94
2023-02-11T11:50:47.842Z,88.21
2023-02-11T11:53:24.486Z,88.11
2023-02-11T11:56:14.396Z,88.81
2023-02-11T11:58:43.143Z,88.25
2023-02-11T12:01:42.378Z,88.28
2023-02-11T12:04:35.374Z,88.53
2023-02-11T12:07:26.821Z,89.54
2023-02-11T12:10:39.520Z,89.47
2023-02-11T12:13:45.211Z,90.42
2023-02-11T12:16:45.456Z,90.36
2023-02-11T12:20:01.267Z,91.38
2023-02-11T12:23:19.833Z,91.71
2023-02-11T12:25:55.941Z,92.38
2023-02-11T12:28:44.838Z,92.67
2023-02-11T12:31:31.136Z,92.98
2023-02-11T12:34:23.294Z,93.15
2023-02-11T12:37:29.141Z,93.73
2023-02-11T12:40:15.408Z,93.90
2023-02-11T12:43:16.539Z,94.51
2023-02-11T12:46:10.293Z,94.74
2023-02-11T12:49:01.790Z,94.51
2023-02-11T12:52:05.363Z,94.45
2023-02-11T12:54:49.039Z,94.43
2023-02-11T12:57:24.189Z,94.51
2023-02-11T13:00:00.014Z,94.77
2023-02-11T13:02:43.453Z,95.06
2023-02-11T13:05:31.894Z,95.27
2023-02-11T13:08:19.113Z,95.94
2023-02-11T13:11:21.385Z,95.58
2023-02-11T13:14:05.471Z,95.80
2023-02-11T13:16:46.955Z,96.00
2023-02-11T13:19:31.958Z,95.72
2023-02-11T13:22:19.342Z,95.71
2023-02-11T13:24:56.597Z,95.42
2023-02-11T13:27:48.048Z,95.55
2023-02-11T13:30:34.408Z,95.90
2023-02-11T13:33:06.668Z,95.73
2023-02-11T13:35:40.960Z,95.92
2023-02-11T13:38:23.827Z,95.79
2023-02-11T13:41:24.821Z,95.54
2023-02-11T13:44:11.254Z,95.53
2023-02-11T13:46:53.812Z,95.59
2023-02-11T13:49:31.196Z,95.60
2023-02-11T13:52:01.057Z,95.38
2023-02-11T13:54:40.118Z,95.65
2023-02-11T13:57:22.929Z,95.25
2023-02-11T13:59:59.305Z,95.25
2023-02-11T14:02:55.781Z,95.36
2023-02-11T14:05:45.047Z,95.41
2023-02-11T14:08:37.580Z,95.26
2023-02-11T14:11:23.707Z,94.83
2023-02-11T14:13:51.625Z,94.84
2023-02-11T14:16:37.030Z,94.78
2023-02-11T14:19:06.713Z,95.11
2023-02-11T14:21:43.736Z,95.13
2023-02-11T14:24:12.856Z,95.20
2023-02-11T14:26:51.822Z,94.82
2023-02-11T14:29:59.030Z,94.67
2023-02-11T14:32:48.285Z,94.37
2023-02-11T14:35:36.041Z,94.49
2023-02-11T14:38:23.247Z,94.31
2023-02-11T14:41:07.751Z,94.15
2023-02-11T14:43:45.396Z,94.49
2023-02-11T14:46:17.959Z,94.60
2023-02-11T14:48:50.464Z,94.30
2023-02-11T14:51:27.313Z,93.96
2023-02-11T14:54:17.011Z,93.87
2023-02-11T14:56:46.892Z,94.13
2023-02-11T14:59:23.221Z,94.23
2023-02-11T15:01:56.885Z,94.49
2023-02-11T15:04:33.372Z,94.25
2023-02-11T15:07:08.421Z,94.09
2023-02-11T15:09:48.190Z,94.36
2023-02-11T15:12:26.145Z,94.19
2023-02-11T15:15:00.510Z,93.96
2023-02-11T15:17:32.018Z,93.94
2023-02-11T15:20:02.389Z,93.46
2023-02-11T15:22:49.787Z,93.26
2023-02-11T15:25:19.728Z,93.27
2023-02-11T15:27:52.397Z,93.16
2023-02-11T15:30:23.711Z,93.18
2023-02-11T15:32:59.644Z,93.15
2023-02-11T15:35:32.644Z,93.26
2023-02-11T15:38:00.860Z,93.23
2023-02-11T15:40:33.109Z,93.40
2023-02-11T15:43:07.633Z,93.30
2023-02-11T15:45:42.622Z,93.04
2023-02-11T15:48:17.569Z,93.12
2023-02-11T15:50:58.524Z,93.18
2023-02-11T15:53:40.348Z,93.19
2023-02-11T15:56:25.600Z,93.16
2023-02-11T15:58:56.666Z,92.95
2023-02-11T16:01:36.962Z,93.27
2023-02-11T16:04:05.644Z,93.25
2023-02-11T16:06:41.133Z,93.35
2023-02-11T16:09:10.042Z,93.15
2023-02-11T16:11:47.133Z,92.80
2023-02-11T16:14:27.852Z,92.96
2023-02-11T16:17:11.003Z,93.36
2023-02-11T16:19:47.879Z,93.69
2023-02-11T16:22:27.629Z,93.42
2023-02-11T16:25:00.097Z,93.42
2023-02-11T16:27:41.981Z,93.28
2023-02-11T16:30:34.958Z,93.23
2023-02-11T16:33:05.528Z,93.58
2023-02-11T16:35:33.634Z,93.48
2023-02-11T16:38:02.600Z,93.70
2023-02-11T16:40:31.817Z,93.65
2023-02-11T16:43:00.489Z,93.81
2023-02-11T16:45:28.513Z,93.45
2023-02-11T16:47:56.749Z,93.83
2023-02-11T16:50:25.674Z,93.71
2023-02-11T16:52:53.999Z,93.94
2023-02-11T16:55:22.386Z,93.81
2023-02-11T16:57:50.649Z,93.81
2023-02-11T17:00:19.661Z,93.87
2023-02-11T17:02:47.754Z,93.77
2023-02-11T17:05:20.466Z,93.87
2023-02-11T17:07:49.525Z,93.72
2023-02-11T17:10:22.332Z,93.82
2023-02-11T17:12:51.228Z,93.88
2023-02-11T17:15:19.332Z,94.01
2023-02-11T17:17:48.050Z,94.22
2023-02-11T17:20:16.589Z,94.10
2023-02-11T17:22:44.595Z,94.10
2023-02-11T17:25:12.825Z,94.19
2023-02-11T17:27:41.211Z,94.19
2023-02-11T17:30:11.815Z,94.13
2023-02-11T17:32:39.797Z,93.91
2023-02-11T17:35:08.076Z,94.16
2023-02-11T17:37:36.169Z,94.23
2023-02-11T17:40:04.687Z,94.52
2023-02-11T17:42:32.847Z,94.43
2023-02-11T17:45:01.044Z,94.17
2023-02-11T17:47:30.070Z,94.37
2023-02-11T17:49:58.253Z,94.13
2023-02-11T17:52:28.109Z,94.10
2023-02-11T17:54:56.257Z,93.94
2023-02-11T17:57:24.270Z,93.93
2023-02-11T17:59:52.273Z,93.97
2023-02-11T18:02:20.601Z,93.96
2023-02-11T18:04:48.992Z,94.08
2023-02-11T18:07:17.512Z,93.87
2023-02-11T18:09:45.527Z,94.27
2023-02-11T18:12:13.570Z,94.40
2023-02-11T18:14:41.745Z,94.32
2023-02-11T18:17:09.735Z,94.45
2023-02-11T18:19:38.143Z,94.55
2023-02-11T18:22:06.236Z,94.36
2023-02-11T18:24:34.270Z,94.21
2023-02-11T18:27:02.357Z,94.11
2023-02-11T18:29:30.473Z,94.29
2023-02-11T18:31:58.790Z,94.12
2023-02-11T18:34:27.327Z,94.29
2023-02-11T18:36:55.433Z,94.17
2023-02-11T18:39:24.377Z,94.25
2023-02-11T18:41:56.965Z,94.14
2023-02-11T18:44:27.387Z,94.08
2023-02-11T18:46:55.422Z,94.07
2023-02-11T18:49:23.794Z,94.06
2023-02-11T18:51:51.830Z,94.06
2023-02-11T18:54:19.856Z,94.06
2023-02-11T18:56:47.936Z,93.99
2023-02-11T18:59:16.209Z,93.68
2023-02-11T19:01:46.772Z,94.33
2023-02-11T19:04:19.666Z,94.16
2023-02-11T19:06:49.739Z,94.15
2023-02-11T19:09:21.242Z,94.03
2023-02-11T19:11:53.940Z,94.62
2023-02-11T19:14:33.668Z,94.68
2023-02-11T19:17:05.923Z,94.47
2023-02-11T19:19:36.113Z,94.33
2023-02-11T19:22:08.578Z,94.22
2023-02-11T19:24:38.781Z,94.23
2023-02-11T19:27:06.935Z,94.40
2023-02-11T19:29:35.311Z,94.24
2023-02-11T19:32:06.489Z,94.29
2023-02-11T19:34:41.130Z,94.60
2023-02-11T19:37:12.708Z,94.37
2023-02-11T19:39:43.272Z,94.61
2023-02-11T19:42:12.734Z,94.35
2023-02-11T19:44:40.748Z,94.52
2023-02-11T19:47:10.241Z,94.31
2023-02-11T19:49:38.306Z,94.31
2023-02-11T19:52:06.589Z,94.08
2023-02-11T19:54:35.116Z,94.11
2023-02-11T19:57:03.393Z,94.33
2023-02-11T19:59:31.626Z,93.94
2023-02-11T20:02:01.445Z,93.88
2023-02-11T20:04:32.069Z,94.13
2023-02-11T20:07:00.262Z,94.18
2023-02-11T20:09:29.027Z,94.05
2023-02-11T20:11:57.404Z,94.02
2023-02-11T20:14:27.850Z,93.91
2023-02-11T20:16:56.258Z,93.96
2023-02-11T20:19:24.440Z,94.13
2023-02-11T20:21:55.909Z,94.36
2023-02-11T20:24:25.635Z,94.73
2023-02-11T20:26:57.020Z,94.66
2023-02-11T20:29:26.079Z,94.34
2023-02-11T20:31:54.714Z,94.34
2023-02-11T20:34:23.189Z,94.34
2023-02-11T20:36:57.680Z,94.11
2023-02-11T20:39:26.780Z,94.01
2023-02-11T20:41:55.031Z,94.02
2023-02-11T20:44:23.757Z,93.97
2023-02-11T20:46:54.015Z,93.88
2023-02-11T20:49:24.699Z,93.95
2023-02-11T20:51:53.795Z,93.88
2023-02-11T20:54:25.809Z,93.88
2023-02-11T20:56:55.267Z,94.03
2023-02-11T20:59:23.856Z,93.71
2023-02-11T21:01:55.560Z,93.95
2023-02-11T21:04:28.592Z,94.18
2023-02-11T21:07:00.113Z,94.00
2023-02-11T21:09:33.335Z,93.87
2023-02-11T21:12:02.769Z,93.67
2023-02-11T21:14:31.393Z,93.21
2023-02-11T21:16:59.557Z,93.30
2023-02-11T21:19:27.638Z,93.62
2023-02-11T21:21:57.206Z,93.56
2023-02-11T21:24:25.311Z,93.39
2023-02-11T21:26:54.829Z,94.43
2023-02-11T21:29:25.513Z,93.89
2023-02-11T21:31:55.796Z,93.07
2023-02-11T21:34:24.010Z,93.52
2023-02-11T21:36:52.336Z,93.58
2023-02-11T21:39:20.407Z,93.35
2023-02-11T21:41:48.694Z,93.57
2023-02-11T21:44:23.272Z,93.12
2023-02-11T21:46:56.497Z,92.91
2023-02-11T21:49:24.544Z,93.12
2023-02-11T21:51:52.491Z,93.14
2023-02-11T21:54:32.014Z,93.23
2023-02-11T21:57:02.907Z,93.22
2023-02-11T21:59:31.877Z,93.26
2023-02-11T22:02:00.854Z,93.31
2023-02-11T22:04:29.033Z,93.25
2023-02-11T22:06:57.199Z,93.27
2023-02-11T22:09:25.331Z,93.30
2023-02-11T22:11:53.644Z,93.01
2023-02-11T22:14:24.299Z,93.16
2023-02-11T22:16:52.407Z,92.99
2023-02-11T22:19:22.343Z,93.00
2023-02-11T22:21:50.387Z,93.10
2023-02-11T22:24:18.475Z,93.20
2023-02-11T22:26:46.420Z,93.37
2023-02-11T22:29:14.469Z,93.42
2023-02-11T22:31:42.495Z,93.69
2023-02-11T22:34:10.688Z,93.40
2023-02-11T22:36:44.205Z,93.63
2023-02-11T22:39:19.153Z,93.52
2023-02-11T22:41:47.938Z,93.60
2023-02-11T22:44:17.331Z,93.85
2023-02-11T22:46:45.533Z,93.75
2023-02-11T22:49:16.688Z,93.88
2023-02-11T22:51:46.188Z,93.91
2023-02-11T22:54:19.217Z,93.80
2023-02-11T22:56:51.162Z,93.81
2023-02-11T22:59:19.461Z,93.58
2023-02-11T23:01:47.643Z,93.58
2023-02-11T23:04:19.093Z,93.48
2023-02-11T23:06:50.509Z,93.68
2023-02-11T23:09:20.190Z,93.41
2023-02-11T23:11:49.431Z,93.66
2023-02-11T23:14:17.416Z,93.59
2023-02-11T23:16:45.801Z,93.09
2023-02-11T23:19:14.072Z,93.10
2023-02-11T23:21:42.150Z,93.40
2023-02-11T23:24:14.065Z,93.23
2023-02-11T23:26:43.570Z,93.28
2023-02-11T23:29:12.336Z,92.99
2023-02-11T23:31:45.184Z,92.89
2023-02-11T23:34:17.277Z,93.06
2023-02-11T23:36:47.811Z,93.47
2023-02-11T23:39:17.060Z,92.95
2023-02-11T23:41:46.242Z,93.34
2023-02-11T23:44:14.219Z,93.48
2023-02-11T23:46:42.263Z,93.15
2023-02-11T23:49:10.275Z,93.05
2023-02-11T23:51:38.329Z,93.25
2023-02-11T23:54:06.404Z,93.29
2023-02-11T23:56:36.789Z,93.26
2023-02-11T23:59:05.865Z,93.64
